createdAt,value
2018-08-16T00:01:00.611Z,17.70
2018-08-16T00:02:03.966Z,17.60
2018-08-16T00:03:07.335Z,17.60
2018-08-16T00:04:10.688Z,17.60
2018-08-16T00:05:14.154Z,17.60
2018-08-16T00:06:17.507Z,17.50
2018-08-16T00:07:20.853Z,17.50
2018-08-16T00:08:24.243Z,17.50
2018-08-16T00:09:27.668Z,17.50
2018-08-16T00:10:31.013Z,17.50
2018-08-16T00:11:34.382Z,17.50
2018-08-16T00:12:37.707Z,17.50
2018-08-16T00:13:41.104Z,17.50
2018-08-16T00:14:44.507Z,17.50
2018-08-16T00:15:47.908Z,17.50
2018-08-16T00:16:51.236Z,17.40
2018-08-16T00:17:54.616Z,17.40
2018-08-16T00:18:57.914Z,17.40
2018-08-16T00:20:01.276Z,17.40
2018-08-16T00:21:04.686Z,17.40
2018-08-16T00:22:08.063Z,17.40
2018-08-16T00:23:11.412Z,17.40
2018-08-16T00:24:14.720Z,17.30
2018-08-16T00:25:18.083Z,17.30
2018-08-16T00:26:21.453Z,17.30
2018-08-16T00:27:24.776Z,17.30
2018-08-16T00:28:28.122Z,17.30
2018-08-16T00:29:31.459Z,17.20
2018-08-16T00:30:34.854Z,17.20
2018-08-16T00:31:38.238Z,17.20
2018-08-16T00:32:41.887Z,17.10
2018-08-16T00:33:45.204Z,17.10
2018-08-16T00:34:48.549Z,17.10
2018-08-16T00:35:51.871Z,17.10
2018-08-16T00:36:55.276Z,17.10
2018-08-16T00:37:58.604Z,17.10
2018-08-16T00:39:01.919Z,17.10
2018-08-16T00:40:08.218Z,17.00
2018-08-16T00:41:11.571Z,17.00
2018-08-16T00:42:14.924Z,16.90
2018-08-16T00:43:18.275Z,16.90
2018-08-16T00:44:21.595Z,16.90
2018-08-16T00:45:24.947Z,16.90
2018-08-16T00:46:28.259Z,16.90
2018-08-16T00:47:32.555Z,17.00
2018-08-16T00:48:35.920Z,16.90
2018-08-16T00:49:39.278Z,17.00
2018-08-16T00:50:42.612Z,17.00
2018-08-16T00:51:45.944Z,17.00
2018-08-16T00:52:49.263Z,16.90
2018-08-16T00:53:52.650Z,16.90
2018-08-16T00:54:55.966Z,16.90
2018-08-16T00:55:59.312Z,16.90
2018-08-16T00:57:02.638Z,16.80
2018-08-16T00:58:06.175Z,16.80
2018-08-16T00:59:09.496Z,16.70
2018-08-16T01:00:15.737Z,16.70
2018-08-16T01:01:19.054Z,16.70
2018-08-16T01:02:22.467Z,16.70
2018-08-16T01:03:25.829Z,16.60
2018-08-16T01:04:29.167Z,16.50
2018-08-16T01:05:32.490Z,16.60
2018-08-16T01:06:35.854Z,16.60
2018-08-16T01:07:39.319Z,16.70
2018-08-16T01:08:42.635Z,16.60
2018-08-16T01:09:45.943Z,16.70
2018-08-16T01:10:49.278Z,16.70
2018-08-16T01:11:52.610Z,16.70
2018-08-16T01:12:55.970Z,16.60
2018-08-16T01:13:59.286Z,16.60
2018-08-16T01:15:02.627Z,16.60
2018-08-16T01:16:06.079Z,16.60
2018-08-16T01:17:09.529Z,16.60
2018-08-16T01:18:12.894Z,16.60
2018-08-16T01:19:16.271Z,16.60
2018-08-16T01:20:19.686Z,16.60
2018-08-16T01:21:23.004Z,16.60
2018-08-16T01:22:26.333Z,16.60
2018-08-16T01:23:36.199Z,16.60
2018-08-16T01:24:39.544Z,16.60
2018-08-16T01:25:42.891Z,16.60
2018-08-16T01:26:46.215Z,16.70
2018-08-16T01:27:49.594Z,16.60
2018-08-16T01:28:52.979Z,16.60
2018-08-16T01:29:56.330Z,16.60
2018-08-16T01:30:59.657Z,16.50
2018-08-16T01:32:03.035Z,16.50
2018-08-16T01:33:06.703Z,16.50
2018-08-16T01:34:10.058Z,16.50
2018-08-16T01:35:13.381Z,16.40
2018-08-16T01:36:16.719Z,16.40
2018-08-16T01:37:20.049Z,16.40
2018-08-16T01:38:23.415Z,16.40
2018-08-16T01:39:26.742Z,16.50
2018-08-16T01:40:30.098Z,16.40
2018-08-16T01:41:33.410Z,16.40
2018-08-16T01:42:37.548Z,16.50
2018-08-16T01:43:40.900Z,16.50
2018-08-16T01:44:44.228Z,16.50
2018-08-16T01:45:47.567Z,16.40
2018-08-16T01:46:50.880Z,16.40
2018-08-16T01:47:54.251Z,16.40
2018-08-16T01:48:57.569Z,16.40
2018-08-16T01:50:00.905Z,16.40
2018-08-16T01:51:04.239Z,16.40
2018-08-16T01:52:07.654Z,16.30
2018-08-16T01:53:11.222Z,16.30
2018-08-16T01:54:14.545Z,16.30
2018-08-16T01:55:17.872Z,16.20
2018-08-16T01:56:21.200Z,16.20
2018-08-16T01:57:24.568Z,16.20
2018-08-16T01:58:27.918Z,16.20
2018-08-16T01:59:31.290Z,16.20
2018-08-16T02:00:34.639Z,16.20
2018-08-16T02:01:38.002Z,16.20
2018-08-16T02:02:41.325Z,16.20
2018-08-16T02:03:44.706Z,16.20
2018-08-16T02:04:48.035Z,16.20
2018-08-16T02:05:51.458Z,16.20
2018-08-16T02:06:54.838Z,16.20
2018-08-16T02:07:58.243Z,16.20
2018-08-16T02:09:01.544Z,16.10
2018-08-16T02:10:05.999Z,16.00
2018-08-16T02:11:09.343Z,16.10
2018-08-16T02:12:12.655Z,16.10
2018-08-16T02:13:16.072Z,16.00
2018-08-16T02:14:19.940Z,16.10
2018-08-16T02:15:23.280Z,16.00
2018-08-16T02:16:26.631Z,16.00
2018-08-16T02:17:30.002Z,16.00
2018-08-16T02:18:33.407Z,16.00
2018-08-16T02:19:36.738Z,16.00
2018-08-16T02:20:40.055Z,16.10
2018-08-16T02:21:43.432Z,16.10
2018-08-16T02:22:46.756Z,16.10
2018-08-16T02:23:50.073Z,16.10
2018-08-16T02:24:53.402Z,16.10
2018-08-16T02:25:56.738Z,16.10
2018-08-16T02:27:00.169Z,16.00
2018-08-16T02:28:03.523Z,16.00
2018-08-16T02:29:06.857Z,16.00
2018-08-16T02:30:10.448Z,16.00
2018-08-16T02:31:13.798Z,16.00
2018-08-16T02:32:17.158Z,16.00
2018-08-16T02:33:20.495Z,15.90
2018-08-16T02:34:23.828Z,15.90
2018-08-16T02:35:27.170Z,15.90
2018-08-16T02:36:30.483Z,15.90
2018-08-16T02:37:34.046Z,15.90
2018-08-16T02:38:37.363Z,15.90
2018-08-16T02:39:40.683Z,15.90
2018-08-16T02:40:44.071Z,15.90
2018-08-16T02:41:47.419Z,15.80
2018-08-16T02:42:50.772Z,15.80
2018-08-16T02:43:54.146Z,15.60
2018-08-16T02:44:57.480Z,15.70
2018-08-16T02:46:00.840Z,15.70
2018-08-16T02:47:04.214Z,15.70
2018-08-16T02:48:07.572Z,15.80
2018-08-16T02:49:10.940Z,15.80
2018-08-16T02:50:14.264Z,15.80
2018-08-16T02:51:17.587Z,15.80
2018-08-16T02:52:20.971Z,15.80
2018-08-16T02:53:24.297Z,15.80
2018-08-16T02:54:27.639Z,15.80
2018-08-16T02:55:30.988Z,15.70
2018-08-16T02:56:34.346Z,15.70
2018-08-16T02:57:37.675Z,15.70
2018-08-16T02:58:40.995Z,15.80
2018-08-16T02:59:44.385Z,15.80
2018-08-16T03:00:47.694Z,15.70
2018-08-16T03:01:51.025Z,15.70
2018-08-16T03:02:54.358Z,15.70
2018-08-16T03:04:04.488Z,15.70
2018-08-16T03:05:07.971Z,15.70
2018-08-16T03:06:11.308Z,15.70
2018-08-16T03:07:14.642Z,15.70
2018-08-16T03:08:17.960Z,15.70
2018-08-16T03:09:21.294Z,15.60
2018-08-16T03:10:24.646Z,15.60
2018-08-16T03:11:27.975Z,15.60
2018-08-16T03:12:38.011Z,15.60
2018-08-16T03:13:41.386Z,15.50
2018-08-16T03:14:44.734Z,15.50
2018-08-16T03:15:48.113Z,15.60
2018-08-16T03:16:51.454Z,15.50
2018-08-16T03:17:54.810Z,15.50
2018-08-16T03:18:58.156Z,15.60
2018-08-16T03:20:01.488Z,15.60
2018-08-16T03:21:04.928Z,15.60
2018-08-16T03:22:08.279Z,15.60
2018-08-16T03:23:11.605Z,15.70
2018-08-16T03:24:14.971Z,15.70
2018-08-16T03:25:18.290Z,15.70
2018-08-16T03:26:21.635Z,15.70
2018-08-16T03:27:24.958Z,15.70
2018-08-16T03:28:28.994Z,15.70
2018-08-16T03:29:32.972Z,15.70
2018-08-16T03:30:36.394Z,15.60
2018-08-16T03:31:39.727Z,15.60
2018-08-16T03:32:43.061Z,15.60
2018-08-16T03:33:46.403Z,15.50
2018-08-16T03:34:49.718Z,15.50
2018-08-16T03:35:53.072Z,15.50
2018-08-16T03:36:56.436Z,15.50
2018-08-16T03:37:59.786Z,15.40
2018-08-16T03:39:03.223Z,15.40
2018-08-16T03:40:07.247Z,15.30
2018-08-16T03:41:10.583Z,15.40
2018-08-16T03:42:13.916Z,15.40
2018-08-16T03:43:17.221Z,15.30
2018-08-16T03:44:20.563Z,15.30
2018-08-16T03:45:23.927Z,15.30
2018-08-16T03:46:27.270Z,15.30
2018-08-16T03:47:30.647Z,15.20
2018-08-16T03:48:33.976Z,15.20
2018-08-16T03:49:37.303Z,15.20
2018-08-16T03:50:40.626Z,15.20
2018-08-16T03:51:43.951Z,15.20
2018-08-16T03:52:47.301Z,15.20
2018-08-16T03:53:50.627Z,15.20
2018-08-16T03:54:53.964Z,15.20
2018-08-16T03:55:57.360Z,15.10
2018-08-16T03:57:00.722Z,15.10
2018-08-16T03:58:04.043Z,15.10
2018-08-16T03:59:07.414Z,15.10
2018-08-16T04:00:10.748Z,15.10
2018-08-16T04:01:14.101Z,15.10
2018-08-16T04:02:17.465Z,15.10
2018-08-16T04:03:20.918Z,15.10
2018-08-16T04:04:24.237Z,15.10
2018-08-16T04:05:27.555Z,15.10
2018-08-16T04:06:30.905Z,15.10
2018-08-16T04:07:34.259Z,15.10
2018-08-16T04:08:37.611Z,15.10
2018-08-16T04:09:40.964Z,15.00
2018-08-16T04:10:44.298Z,15.00
2018-08-16T04:11:47.611Z,14.90
2018-08-16T04:12:51.055Z,14.90
2018-08-16T04:13:54.407Z,14.90
2018-08-16T04:14:57.743Z,15.00
2018-08-16T04:16:01.065Z,15.00
2018-08-16T04:17:04.409Z,15.00
2018-08-16T04:18:07.877Z,15.00
2018-08-16T04:19:11.242Z,15.00
2018-08-16T04:20:14.602Z,15.00
2018-08-16T04:21:17.928Z,15.10
2018-08-16T04:22:21.264Z,15.00
2018-08-16T04:23:24.598Z,15.00
2018-08-16T04:24:27.966Z,15.10
2018-08-16T04:25:31.300Z,15.10
2018-08-16T04:26:34.618Z,15.00
2018-08-16T04:27:37.993Z,15.00
2018-08-16T04:28:41.310Z,15.00
2018-08-16T04:29:44.731Z,15.00
2018-08-16T04:30:48.050Z,14.90
2018-08-16T04:31:51.381Z,14.90
2018-08-16T04:32:54.711Z,14.90
2018-08-16T04:33:58.063Z,15.00
2018-08-16T04:35:01.428Z,15.00
2018-08-16T04:36:04.826Z,15.00
2018-08-16T04:37:08.198Z,15.00
2018-08-16T04:38:11.528Z,15.00
2018-08-16T04:39:14.875Z,15.00
2018-08-16T04:40:18.266Z,15.00
2018-08-16T04:41:21.591Z,14.90
2018-08-16T04:42:24.916Z,15.00
2018-08-16T04:43:28.270Z,15.00
2018-08-16T04:44:31.592Z,15.00
2018-08-16T04:45:34.924Z,15.00
2018-08-16T04:46:38.243Z,15.00
2018-08-16T04:47:41.594Z,15.00
2018-08-16T04:48:44.920Z,15.00
2018-08-16T04:49:48.254Z,15.00
2018-08-16T04:50:51.589Z,15.00
2018-08-16T04:51:54.933Z,14.90
2018-08-16T04:52:58.257Z,15.00
2018-08-16T04:54:01.585Z,15.00
2018-08-16T04:55:05.885Z,14.90
2018-08-16T04:56:15.926Z,14.90
2018-08-16T04:57:19.258Z,15.00
2018-08-16T04:58:22.566Z,15.00
2018-08-16T04:59:25.898Z,15.00
2018-08-16T05:00:29.235Z,15.10
2018-08-16T05:01:32.596Z,15.10
2018-08-16T05:02:36.138Z,15.10
2018-08-16T05:03:39.475Z,15.10
2018-08-16T05:04:42.823Z,15.10
2018-08-16T05:05:46.163Z,15.10
2018-08-16T05:06:49.518Z,15.10
2018-08-16T05:07:52.873Z,15.10
2018-08-16T05:08:56.188Z,15.10
2018-08-16T05:09:59.514Z,15.10
2018-08-16T05:11:02.908Z,15.20
2018-08-16T05:12:06.303Z,15.20
2018-08-16T05:13:09.638Z,15.20
2018-08-16T05:14:12.963Z,15.20
2018-08-16T05:15:22.851Z,15.30
2018-08-16T05:16:26.189Z,15.30
2018-08-16T05:17:29.575Z,15.30
2018-08-16T05:18:32.946Z,15.30
2018-08-16T05:19:36.291Z,15.40
2018-08-16T05:20:39.630Z,15.30
2018-08-16T05:21:42.962Z,15.30
2018-08-16T05:22:46.313Z,15.30
2018-08-16T05:23:49.675Z,15.30
2018-08-16T05:24:52.962Z,15.30
2018-08-16T05:25:56.298Z,15.30
2018-08-16T05:26:59.619Z,15.40
2018-08-16T05:28:02.995Z,15.40
2018-08-16T05:29:06.490Z,15.50
2018-08-16T05:30:11.652Z,15.50
2018-08-16T05:31:14.970Z,15.60
2018-08-16T05:32:18.304Z,15.70
2018-08-16T05:33:21.667Z,15.70
2018-08-16T05:34:24.996Z,15.70
2018-08-16T05:35:28.387Z,15.70
2018-08-16T05:36:31.763Z,15.70
2018-08-16T05:37:35.659Z,15.70
2018-08-16T05:38:39.010Z,15.80
2018-08-16T05:39:42.335Z,15.70
2018-08-16T05:40:45.674Z,15.80
2018-08-16T05:41:49.048Z,15.80
2018-08-16T05:42:52.498Z,15.80
2018-08-16T05:43:55.836Z,15.90
2018-08-16T05:44:59.159Z,16.00
2018-08-16T05:46:02.514Z,16.00
2018-08-16T05:47:06.354Z,16.00
2018-08-16T05:48:09.720Z,16.10
2018-08-16T05:49:13.103Z,16.10
2018-08-16T05:50:16.447Z,16.10
2018-08-16T05:51:19.818Z,16.20
2018-08-16T05:52:23.148Z,16.20
2018-08-16T05:53:26.496Z,16.20
2018-08-16T05:54:29.903Z,16.20
2018-08-16T05:55:33.235Z,16.20
2018-08-16T05:56:36.584Z,16.10
2018-08-16T05:57:40.354Z,16.10
2018-08-16T05:58:43.695Z,16.10
2018-08-16T05:59:47.053Z,16.10
2018-08-16T06:00:50.405Z,16.00
2018-08-16T06:01:53.759Z,16.00
2018-08-16T06:02:57.135Z,16.10
2018-08-16T06:04:00.496Z,16.10
2018-08-16T06:05:06.879Z,16.10
2018-08-16T06:06:10.209Z,16.10
2018-08-16T06:07:13.639Z,16.20
2018-08-16T06:08:17.001Z,16.30
2018-08-16T06:09:20.349Z,16.40
2018-08-16T06:10:23.688Z,16.50
2018-08-16T06:11:27.148Z,16.40
2018-08-16T06:12:30.507Z,16.50
2018-08-16T06:13:33.923Z,16.60
2018-08-16T06:14:37.264Z,16.60
2018-08-16T06:15:40.662Z,16.70
2018-08-16T06:16:44.029Z,16.80
2018-08-16T06:17:47.630Z,16.80
2018-08-16T06:18:50.963Z,16.60
2018-08-16T06:19:54.322Z,16.60
2018-08-16T06:20:57.648Z,16.70
2018-08-16T06:22:01.044Z,16.80
2018-08-16T06:23:04.375Z,16.60
2018-08-16T06:24:07.868Z,16.70
2018-08-16T06:25:12.952Z,16.70
2018-08-16T06:26:16.283Z,16.80
2018-08-16T06:27:19.643Z,16.80
2018-08-16T06:28:22.978Z,16.90
2018-08-16T06:29:26.348Z,17.00
2018-08-16T06:30:29.708Z,17.10
2018-08-16T06:31:33.074Z,17.10
2018-08-16T06:32:36.411Z,17.10
2018-08-16T06:33:39.753Z,17.20
2018-08-16T06:34:43.192Z,17.20
2018-08-16T06:35:46.580Z,17.20
2018-08-16T06:36:50.035Z,17.20
2018-08-16T06:37:53.380Z,17.20
2018-08-16T06:39:05.538Z,17.30
2018-08-16T06:40:13.047Z,17.40
2018-08-16T06:41:16.417Z,17.30
2018-08-16T06:42:19.798Z,17.40
2018-08-16T06:43:23.236Z,17.40
2018-08-16T06:44:26.595Z,17.40
2018-08-16T06:45:29.911Z,17.50
2018-08-16T06:46:33.282Z,17.40
2018-08-16T06:47:36.626Z,17.40
2018-08-16T06:48:39.948Z,17.40
2018-08-16T06:49:43.671Z,17.50
2018-08-16T06:50:47.063Z,17.50
2018-08-16T06:51:50.383Z,17.50
2018-08-16T06:52:53.763Z,17.60
2018-08-16T06:53:57.110Z,17.60
2018-08-16T06:55:00.991Z,17.50
2018-08-16T06:56:04.387Z,17.50
2018-08-16T06:57:07.786Z,17.50
2018-08-16T06:58:11.121Z,17.50
2018-08-16T06:59:14.551Z,17.50
2018-08-16T07:00:17.910Z,17.60
2018-08-16T07:01:21.247Z,17.70
2018-08-16T07:02:24.622Z,17.80
2018-08-16T07:03:28.014Z,17.80
2018-08-16T07:04:31.346Z,17.90
2018-08-16T07:05:34.669Z,17.80
2018-08-16T07:06:38.034Z,17.90
2018-08-16T07:07:41.386Z,18.00
2018-08-16T07:08:44.729Z,18.00
2018-08-16T07:09:48.114Z,18.00
2018-08-16T07:10:51.492Z,17.90
2018-08-16T07:11:54.860Z,17.90
2018-08-16T07:12:58.223Z,18.00
2018-08-16T07:14:01.609Z,18.10
2018-08-16T07:15:07.614Z,18.10
2018-08-16T07:16:11.040Z,18.20
2018-08-16T07:17:14.371Z,18.30
2018-08-16T07:18:17.748Z,18.20
2018-08-16T07:19:21.104Z,18.30
2018-08-16T07:20:24.475Z,18.30
2018-08-16T07:21:27.815Z,18.40
2018-08-16T07:22:31.160Z,18.40
2018-08-16T07:23:34.552Z,18.40
2018-08-16T07:24:37.871Z,18.50
2018-08-16T07:25:41.208Z,18.50
2018-08-16T07:26:44.565Z,18.50
2018-08-16T07:27:47.916Z,18.50
2018-08-16T07:28:51.292Z,18.60
2018-08-16T07:29:54.727Z,18.60
2018-08-16T07:30:58.044Z,18.70
2018-08-16T07:32:01.730Z,18.80
2018-08-16T07:33:05.078Z,18.80
2018-08-16T07:34:08.478Z,18.90
2018-08-16T07:35:11.824Z,19.10
2018-08-16T07:36:15.147Z,19.20
2018-08-16T07:37:18.567Z,19.10
2018-08-16T07:38:21.888Z,19.20
2018-08-16T07:39:25.272Z,19.30
2018-08-16T07:40:28.651Z,19.30
2018-08-16T07:41:32.035Z,19.30
2018-08-16T07:42:35.395Z,19.50
2018-08-16T07:43:38.809Z,19.60
2018-08-16T07:44:42.227Z,19.70
2018-08-16T07:45:45.722Z,19.80
2018-08-16T07:46:48.997Z,19.90
2018-08-16T07:47:52.370Z,20.00
2018-08-16T07:48:55.718Z,20.00
2018-08-16T07:49:59.055Z,20.00
2018-08-16T07:51:02.590Z,20.10
2018-08-16T07:52:08.972Z,20.20
2018-08-16T07:53:19.050Z,20.20
2018-08-16T07:54:22.450Z,20.30
2018-08-16T07:55:25.794Z,20.40
2018-08-16T07:56:29.153Z,20.40
2018-08-16T07:57:32.567Z,20.50
2018-08-16T07:58:35.973Z,20.60
2018-08-16T07:59:39.272Z,20.60
2018-08-16T08:00:42.617Z,20.70
2018-08-16T08:01:45.960Z,20.70
2018-08-16T08:02:49.343Z,20.70
2018-08-16T08:03:52.759Z,20.80
2018-08-16T08:04:56.092Z,20.80
2018-08-16T08:05:59.418Z,20.80
2018-08-16T08:07:02.795Z,20.90
2018-08-16T08:08:06.188Z,20.90
2018-08-16T08:09:10.483Z,21.00
2018-08-16T08:10:13.739Z,21.00
2018-08-16T08:11:17.067Z,21.20
2018-08-16T08:12:20.451Z,21.30
2018-08-16T08:13:23.826Z,21.30
2018-08-16T08:14:27.190Z,21.40
2018-08-16T08:15:30.593Z,21.50
2018-08-16T08:16:33.927Z,21.60
2018-08-16T08:17:37.633Z,21.70
2018-08-16T08:18:40.956Z,21.70
2018-08-16T08:19:44.312Z,21.80
2018-08-16T08:20:47.640Z,21.70
2018-08-16T08:21:51.006Z,21.70
2018-08-16T08:22:54.351Z,21.90
2018-08-16T08:23:57.692Z,21.90
2018-08-16T08:25:01.099Z,22.00
2018-08-16T08:26:04.459Z,22.10
2018-08-16T08:27:07.807Z,22.10
2018-08-16T08:28:11.143Z,22.10
2018-08-16T08:29:14.480Z,22.10
2018-08-16T08:30:17.867Z,22.20
2018-08-16T08:31:21.235Z,22.20
2018-08-16T08:32:24.566Z,22.20
2018-08-16T08:33:27.890Z,22.30
2018-08-16T08:34:31.236Z,22.40
2018-08-16T08:35:34.632Z,22.40
2018-08-16T08:36:49.304Z,22.40
2018-08-16T08:38:14.479Z,22.50
2018-08-16T08:39:17.851Z,22.50
2018-08-16T08:40:21.206Z,22.60
2018-08-16T08:41:24.594Z,22.60
2018-08-16T08:42:27.910Z,22.70
2018-08-16T08:43:42.675Z,22.80
2018-08-16T08:44:46.005Z,22.80
2018-08-16T08:45:49.403Z,22.90
2018-08-16T08:46:53.264Z,23.00
2018-08-16T08:47:58.487Z,23.00
2018-08-16T08:49:01.871Z,23.00
2018-08-16T08:50:07.282Z,23.10
2018-08-16T08:51:10.655Z,23.10
2018-08-16T08:52:14.034Z,23.20
2018-08-16T08:54:34.189Z,23.30
2018-08-16T08:55:48.863Z,23.30
2018-08-16T08:57:03.854Z,23.40
2018-08-16T08:58:18.994Z,23.40
2018-08-16T08:59:23.681Z,23.50
2018-08-16T09:00:27.775Z,23.60
2018-08-16T09:01:31.744Z,23.70
2018-08-16T09:02:36.908Z,23.80
2018-08-16T09:03:41.065Z,23.80
2018-08-16T09:04:45.162Z,23.90
2018-08-16T09:05:49.617Z,23.90
2018-08-16T09:06:54.668Z,24.00
2018-08-16T09:08:00.719Z,24.00
2018-08-16T09:09:07.435Z,24.00
2018-08-16T09:11:20.525Z,24.10
2018-08-16T09:12:35.254Z,24.20
2018-08-16T09:13:50.755Z,24.30
2018-08-16T09:16:04.068Z,24.40
2018-08-16T09:17:14.057Z,24.60
2018-08-16T09:18:17.400Z,24.60
2018-08-16T09:19:20.788Z,24.60
2018-08-16T09:20:24.103Z,24.60
2018-08-16T09:21:28.028Z,24.70
2018-08-16T09:22:31.350Z,24.80
2018-08-16T09:23:34.840Z,24.80
2018-08-16T09:24:38.231Z,24.90
2018-08-16T09:25:41.539Z,25.00
2018-08-16T09:26:45.605Z,25.10
2018-08-16T09:27:48.923Z,25.20
2018-08-16T09:28:52.286Z,25.30
2018-08-16T09:30:16.082Z,25.40
2018-08-16T09:31:30.773Z,25.50
2018-08-16T09:32:45.345Z,25.40
2018-08-16T09:34:00.116Z,25.40
2018-08-16T09:35:03.507Z,25.40
2018-08-16T09:36:06.915Z,25.40
2018-08-16T09:37:12.832Z,25.50
2018-08-16T09:38:16.155Z,25.50
2018-08-16T09:39:19.537Z,25.60
2018-08-16T09:40:22.916Z,25.70
2018-08-16T09:41:26.705Z,25.60
2018-08-16T09:42:30.077Z,25.60
2018-08-16T09:43:33.409Z,25.70
2018-08-16T09:44:36.726Z,25.80
2018-08-16T09:47:23.971Z,25.80
2018-08-16T09:48:38.618Z,25.80
2018-08-16T09:49:43.927Z,25.80
2018-08-16T09:50:47.266Z,25.90
2018-08-16T09:51:50.625Z,26.00
2018-08-16T09:52:53.989Z,25.90
2018-08-16T09:53:57.357Z,25.90
2018-08-16T09:55:00.700Z,26.00
2018-08-16T09:56:04.027Z,26.00
2018-08-16T09:57:08.651Z,26.00
2018-08-16T09:58:11.981Z,26.10
2018-08-16T09:59:15.879Z,26.00
2018-08-16T10:00:23.439Z,26.00
2018-08-16T10:01:26.781Z,26.10
2018-08-16T10:02:30.142Z,26.20
2018-08-16T10:03:33.474Z,26.40
2018-08-16T10:04:36.860Z,26.30
2018-08-16T10:05:40.179Z,26.30
2018-08-16T10:06:43.943Z,26.30
2018-08-16T10:07:47.255Z,26.30
2018-08-16T10:08:50.657Z,26.30
2018-08-16T10:09:54.053Z,26.40
2018-08-16T10:10:57.367Z,26.60
2018-08-16T10:12:01.805Z,26.80
2018-08-16T10:13:05.150Z,27.00
2018-08-16T10:14:08.499Z,27.10
2018-08-16T10:15:11.846Z,27.00
2018-08-16T10:16:15.172Z,27.00
2018-08-16T10:17:18.482Z,27.00
2018-08-16T10:18:21.810Z,27.10
2018-08-16T10:19:25.801Z,27.20
2018-08-16T10:20:29.181Z,27.30
2018-08-16T10:21:35.406Z,27.50
2018-08-16T10:22:38.763Z,27.50
2018-08-16T10:23:42.083Z,27.70
2018-08-16T10:24:45.414Z,27.80
2018-08-16T10:25:48.778Z,27.80
2018-08-16T10:26:52.193Z,27.70
2018-08-16T10:27:55.579Z,27.60
2018-08-16T10:28:58.932Z,27.60
2018-08-16T10:30:02.255Z,27.80
2018-08-16T10:31:05.595Z,28.10
2018-08-16T10:32:08.913Z,28.20
2018-08-16T10:33:12.265Z,28.10
2018-08-16T10:34:15.584Z,28.10
2018-08-16T10:35:18.975Z,28.00
2018-08-16T10:36:22.307Z,28.00
2018-08-16T10:37:25.615Z,27.90
2018-08-16T10:38:28.948Z,27.70
2018-08-16T10:39:32.325Z,27.80
2018-08-16T10:40:35.695Z,27.80
2018-08-16T10:41:39.047Z,27.70
2018-08-16T10:42:42.426Z,27.80
2018-08-16T10:43:45.790Z,27.70
2018-08-16T10:44:49.127Z,27.70
2018-08-16T10:45:52.423Z,27.80
2018-08-16T10:46:55.735Z,27.90
2018-08-16T10:47:59.052Z,28.10
2018-08-16T10:49:02.422Z,28.10
2018-08-16T10:50:06.298Z,28.20
2018-08-16T10:51:09.633Z,28.20
2018-08-16T10:52:12.957Z,28.30
2018-08-16T10:53:16.339Z,28.40
2018-08-16T10:54:19.719Z,28.40
2018-08-16T10:55:23.031Z,28.30
2018-08-16T10:56:26.450Z,28.20
2018-08-16T10:57:29.776Z,28.30
2018-08-16T10:58:33.130Z,28.40
2018-08-16T10:59:36.534Z,28.40
2018-08-16T11:00:39.932Z,28.50
2018-08-16T11:01:43.314Z,28.70
2018-08-16T11:02:46.652Z,28.80
2018-08-16T11:03:50.025Z,29.00
2018-08-16T11:04:53.392Z,29.00
2018-08-16T11:05:56.729Z,29.00
2018-08-16T11:07:00.088Z,28.90
2018-08-16T11:08:03.416Z,28.90
2018-08-16T11:09:08.751Z,28.90
2018-08-16T11:10:12.128Z,29.00
2018-08-16T11:11:15.464Z,29.00
2018-08-16T11:12:18.799Z,29.10
2018-08-16T11:13:22.582Z,29.10
2018-08-16T11:14:25.900Z,29.10
2018-08-16T11:15:29.248Z,29.20
2018-08-16T11:16:32.564Z,29.20
2018-08-16T11:17:35.895Z,29.20
2018-08-16T11:18:39.203Z,29.10
2018-08-16T11:19:42.544Z,29.10
2018-08-16T11:20:45.902Z,29.00
2018-08-16T11:21:49.272Z,29.00
2018-08-16T11:22:52.788Z,29.00
2018-08-16T11:23:56.132Z,28.90
2018-08-16T11:25:02.466Z,28.90
2018-08-16T11:26:05.823Z,29.00
2018-08-16T11:27:09.131Z,29.10
2018-08-16T11:28:12.447Z,29.20
2018-08-16T11:29:15.815Z,29.10
2018-08-16T11:30:19.371Z,29.20
2018-08-16T11:31:22.682Z,29.00
2018-08-16T11:32:26.031Z,29.00
2018-08-16T11:33:29.399Z,29.20
2018-08-16T11:34:32.721Z,29.30
2018-08-16T11:35:36.093Z,29.50
2018-08-16T11:36:39.417Z,29.50
2018-08-16T11:37:42.790Z,29.70
2018-08-16T11:38:46.111Z,29.90
2018-08-16T11:39:49.479Z,29.90
2018-08-16T11:40:52.888Z,29.90
2018-08-16T11:41:56.216Z,29.90
2018-08-16T11:42:59.540Z,29.80
2018-08-16T11:44:02.873Z,29.80
2018-08-16T11:45:06.719Z,29.90
2018-08-16T11:46:10.073Z,29.70
2018-08-16T11:47:13.396Z,30.00
2018-08-16T11:48:16.707Z,30.10
2018-08-16T11:49:20.022Z,30.00
2018-08-16T11:50:23.376Z,30.00
2018-08-16T11:51:26.787Z,30.00
2018-08-16T11:52:30.144Z,30.10
2018-08-16T11:53:33.466Z,30.20
2018-08-16T11:54:36.782Z,30.10
2018-08-16T11:55:40.157Z,30.00
2018-08-16T11:56:43.540Z,30.00
2018-08-16T11:57:46.854Z,29.90
2018-08-16T11:58:50.228Z,30.00
2018-08-16T11:59:53.544Z,30.00
2018-08-16T12:00:56.877Z,30.10
2018-08-16T12:02:00.251Z,30.20
2018-08-16T12:03:03.624Z,30.30
2018-08-16T12:04:06.971Z,30.40
2018-08-16T12:05:10.299Z,30.40
2018-08-16T12:06:13.643Z,30.50
2018-08-16T12:07:17.348Z,30.60
2018-08-16T12:08:20.727Z,30.80
2018-08-16T12:09:24.051Z,30.70
2018-08-16T12:10:27.413Z,30.70
2018-08-16T12:11:30.726Z,30.50
2018-08-16T12:12:34.080Z,30.50
2018-08-16T12:13:37.391Z,30.70
2018-08-16T12:14:40.724Z,30.70
2018-08-16T12:15:44.066Z,30.70
2018-08-16T12:16:47.382Z,30.90
2018-08-16T12:17:50.745Z,30.90
2018-08-16T12:18:54.091Z,31.00
2018-08-16T12:19:57.414Z,31.20
2018-08-16T12:21:00.731Z,31.00
2018-08-16T12:22:04.063Z,30.90
2018-08-16T12:23:07.428Z,30.80
2018-08-16T12:24:10.774Z,31.00
2018-08-16T12:25:14.116Z,31.00
2018-08-16T12:26:17.444Z,30.90
2018-08-16T12:27:20.771Z,30.70
2018-08-16T12:28:24.125Z,30.80
2018-08-16T12:29:27.443Z,30.80
2018-08-16T12:30:30.782Z,31.10
2018-08-16T12:31:34.144Z,31.10
2018-08-16T12:32:37.653Z,31.20
2018-08-16T12:33:40.959Z,31.40
2018-08-16T12:34:44.357Z,31.30
2018-08-16T12:35:47.659Z,31.40
2018-08-16T12:36:51.015Z,31.50
2018-08-16T12:37:54.388Z,31.60
2018-08-16T12:38:58.076Z,31.60
2018-08-16T12:40:01.431Z,31.50
2018-08-16T12:41:05.121Z,31.60
2018-08-16T12:42:08.536Z,31.70
2018-08-16T12:43:11.872Z,31.80
2018-08-16T12:44:15.187Z,32.00
2018-08-16T12:45:18.545Z,32.00
2018-08-16T12:46:21.901Z,31.70
2018-08-16T12:47:25.346Z,31.90
2018-08-16T12:48:28.653Z,31.60
2018-08-16T12:49:31.975Z,31.60
2018-08-16T12:50:35.288Z,31.40
2018-08-16T12:51:38.640Z,31.30
2018-08-16T12:52:42.022Z,31.20
2018-08-16T12:53:45.394Z,31.10
2018-08-16T12:54:48.740Z,31.10
2018-08-16T12:55:52.055Z,31.10
2018-08-16T12:56:55.415Z,31.10
2018-08-16T12:57:58.779Z,31.20
2018-08-16T12:59:02.095Z,31.20
2018-08-16T13:00:08.759Z,31.30
2018-08-16T13:01:12.079Z,31.30
2018-08-16T13:02:15.455Z,31.50
2018-08-16T13:03:18.783Z,31.60
2018-08-16T13:04:22.105Z,31.70
2018-08-16T13:05:25.458Z,31.70
2018-08-16T13:06:28.792Z,31.80
2018-08-16T13:07:32.172Z,31.70
2018-08-16T13:08:35.555Z,31.80
2018-08-16T13:09:38.882Z,32.00
2018-08-16T13:10:42.239Z,32.30
2018-08-16T13:11:45.559Z,32.60
2018-08-16T13:12:48.941Z,32.60
2018-08-16T13:13:52.283Z,32.60
2018-08-16T13:14:55.613Z,32.40
2018-08-16T13:15:58.951Z,32.30
2018-08-16T13:17:02.277Z,32.20
2018-08-16T13:18:05.903Z,32.10
2018-08-16T13:19:09.236Z,32.20
2018-08-16T13:20:12.597Z,32.30
2018-08-16T13:21:15.914Z,32.40
2018-08-16T13:22:19.238Z,32.60
2018-08-16T13:23:22.631Z,32.70
2018-08-16T13:24:25.948Z,32.80
2018-08-16T13:25:29.271Z,32.90
2018-08-16T13:26:32.606Z,33.00
2018-08-16T13:27:36.248Z,33.00
2018-08-16T13:28:39.584Z,33.00
2018-08-16T13:29:42.924Z,33.00
2018-08-16T13:30:46.251Z,33.00
2018-08-16T13:31:49.588Z,32.90
2018-08-16T13:32:52.953Z,32.90
2018-08-16T13:33:56.314Z,32.70
2018-08-16T13:34:59.639Z,32.80
2018-08-16T13:36:03.002Z,32.80
2018-08-16T13:37:06.514Z,32.90
2018-08-16T13:38:09.838Z,33.00
2018-08-16T13:39:14.386Z,33.10
2018-08-16T13:40:17.725Z,33.10
2018-08-16T13:41:21.447Z,32.80
2018-08-16T13:42:24.468Z,32.50
2018-08-16T13:43:27.752Z,32.60
2018-08-16T13:44:31.108Z,32.50
2018-08-16T13:45:34.421Z,32.50
2018-08-16T13:46:37.735Z,32.50